Time;durP1;ratioP1;P1;durP2;ratioP2;P2;SDS_P1;SDS_P2;PMS_P1;PMS_P2;Temp;Humidity;BMP_temperature;BMP_pressure;BME280_temperature;BME280_humidity;BME280_pressure;Samples;Min_cycle;Max_cycle;Signal;HPM_P1;HPM_P2
2023/08/22 00:00:32;;;;;;;11.20;9.70;;;;;;;23.33;65.46;99397.86;107506;1254;73392;-40
2023/08/22 00:03:00;;;;;;;11.20;9.80;;;;;;;23.29;65.69;99400.36;107611;1254;67592;-40
2023/08/22 00:05:28;;;;;;;12.00;9.70;;;;;;;23.24;65.66;99394.29;107611;1257;71460;-40
2023/08/22 00:07:55;;;;;;;11.70;9.70;;;;;;;23.23;65.64;99393.48;107568;1254;62088;-40
2023/08/22 00:10:23;;;;;;;11.60;9.50;;;;;;;23.22;65.74;99393.41;107513;1254;59298;-40
2023/08/22 00:12:51;;;;;;;13.10;9.50;;;;;;;23.21;65.85;99391.23;107485;1254;73025;-40
2023/08/22 00:15:18;;;;;;;11.40;10.20;;;;;;;23.16;66.02;99387.77;107582;1254;67597;-40
2023/08/22 00:17:46;;;;;;;11.60;10.40;;;;;;;23.12;66.27;99385.20;107573;1254;72646;-40
2023/08/22 00:20:14;;;;;;;11.30;10.20;;;;;;;23.07;66.40;99383.39;107480;1254;60407;-40
2023/08/22 00:22:42;;;;;;;10.30;9.30;;;;;;;23.04;66.78;99383.98;107575;1254;59992;-40
2023/08/22 00:25:10;;;;;;;12.90;9.40;;;;;;;23.05;66.71;99385.36;107486;1253;71864;-40
2023/08/22 00:27:38;;;;;;;10.50;9.40;;;;;;;23.05;66.74;99385.42;107635;1254;67933;-40
2023/08/22 00:30:07;;;;;;;10.90;9.80;;;;;;;23.04;66.95;99389.90;107457;1254;72663;-40
2023/08/22 00:32:35;;;;;;;12.00;10.00;;;;;;;23.00;66.83;99391.20;107537;1254;60086;-40
2023/08/22 00:35:03;;;;;;;11.50;10.30;;;;;;;22.92;67.12;99388.19;107518;1253;60488;-40
2023/08/22 00:37:30;;;;;;;11.90;9.90;;;;;;;22.87;67.40;99392.30;107516;1258;73064;-40
2023/08/22 00:40:00;;;;;;;10.20;9.10;;;;;;;22.84;67.50;99384.97;107464;1254;67608;-40
2023/08/22 00:42:27;;;;;;;10.10;9.00;;;;;;;22.83;67.62;99384.13;107417;1254;72731;-40
2023/08/22 00:44:55;;;;;;;10.40;8.90;;;;;;;22.81;67.74;99389.47;107331;1259;60094;-40
2023/08/22 00:47:23;;;;;;;10.70;9.60;;;;;;;22.77;68.02;99389.23;107359;1253;60094;-40
2023/08/22 00:49:51;;;;;;;10.70;9.60;;;;;;;22.73;68.10;99391.77;107358;1253;71995;-40
2023/08/22 00:52:21;;;;;;;11.90;9.80;;;;;;;22.69;68.21;99391.71;107374;1253;66299;-40
2023/08/22 00:54:49;;;;;;;10.10;9.10;;;;;;;22.68;68.22;99393.24;107294;1253;72563;-40
2023/08/22 00:57:16;;;;;;;11.00;9.10;;;;;;;22.68;68.25;99399.17;107345;1259;60179;-40
2023/08/22 00:59:44;;;;;;;9.80;8.80;;;;;;;22.64;68.35;99404.88;107387;1254;60611;-40
2023/08/22 01:02:14;;;;;;;10.50;9.30;;;;;;;22.58;68.58;99401.90;107342;1253;71810;-40
2023/08/22 01:04:43;;;;;;;;;;;;;;;22.53;68.76;99399.19;107353;1254;67104;-40
2023/08/22 01:07:25;;;;;;;10.60;9.50;;;;;;;22.49;68.85;99400.83;107405;1253;73138;-40
2023/08/22 01:10:00;;;;;;;10.40;8.90;;;;;;;22.46;69.10;99403.13;107266;1258;60392;-41
2023/08/22 01:12:32;;;;;;;12.60;8.60;;;;;;;22.45;69.19;99410.41;107378;1254;60099;-40
2023/08/22 01:15:26;;;;;;;12.70;8.90;;;;;;;22.43;69.25;99412.91;107336;1253;73079;-40
2023/08/22 01:17:56;;;;;;;11.30;9.30;;;;;;;22.38;69.60;99411.73;107366;1254;66657;-40
2023/08/22 01:20:27;;;;;;;10.40;9.20;;;;;;;22.31;69.78;99411.53;107385;1257;72673;-40
2023/08/22 01:22:57;;;;;;;10.50;8.90;;;;;;;22.26;69.94;99411.13;107352;1258;62517;-40
2023/08/22 01:25:25;;;;;;;13.30;9.60;;;;;;;22.25;70.18;99410.52;107371;1254;60559;-40
2023/08/22 01:27:59;;;;;;;10.10;8.40;;;;;;;22.26;70.18;99414.75;107322;1253;73860;-40
2023/08/22 01:31:02;;;;;;;10.00;9.00;;;;;;;22.26;70.18;99410.65;107324;1254;67745;-40
2023/08/22 01:33:45;;;;;;;9.90;8.90;;;;;;;22.20;70.45;99409.07;107271;1253;71156;-40
2023/08/22 01:36:12;;;;;;;10.90;9.70;;;;;;;22.09;70.88;99419.36;107349;1259;60668;-40
2023/08/22 01:38:40;;;;;;;10.10;9.10;;;;;;;22.01;71.24;99420.39;107391;1254;60305;-40
2023/08/22 01:41:08;;;;;;;10.20;9.20;;;;;;;21.96;71.39;99415.80;107358;1254;73862;-40
2023/08/22 01:43:36;;;;;;;9.70;8.70;;;;;;;21.91;71.77;99423.85;107316;1260;67896;-40
2023/08/22 01:46:05;;;;;;;12.80;9.30;;;;;;;21.86;72.22;99420.52;107313;1257;72679;-40
2023/08/22 01:48:33;;;;;;;13.80;9.60;;;;;;;21.78;72.66;99422.39;107399;1253;60456;-40
2023/08/22 01:51:01;;;;;;;12.70;8.90;;;;;;;21.70;73.15;99420.46;107366;1254;60261;-40
2023/08/22 01:53:28;;;;;;;9.80;8.40;;;;;;;21.63;73.61;99420.95;107349;1254;73865;-40
2023/08/22 01:56:00;;;;;;;8.60;7.70;;;;;;;21.60;73.95;99424.73;107408;1254;66952;-40
2023/08/22 01:58:27;;;;;;;12.30;9.00;;;;;;;21.56;74.31;99425.94;107358;1254;72661;-40
2023/08/22 02:00:55;;;;;;;10.00;9.00;;;;;;;21.50;74.62;99429.54;107437;1254;60552;-40
2023/08/22 02:03:23;;;;;;;9.20;8.30;;;;;;;21.44;74.84;99431.11;107613;1254;60421;-40
2023/08/22 02:05:52;;;;;;;8.40;7.60;;;;;;;21.42;74.95;99438.27;107386;1259;73234;-40
2023/08/22 02:08:22;;;;;;;9.10;7.90;;;;;;;21.42;75.02;99438.48;107349;1254;67677;-40
2023/08/22 02:10:50;;;;;;;9.80;8.20;;;;;;;21.40;75.00;99440.27;107373;1256;72537;-40
2023/08/22 02:13:17;;;;;;;8.40;7.60;;;;;;;21.36;75.09;99438.01;107350;1253;61085;-40
2023/08/22 02:15:45;;;;;;;9.60;8.50;;;;;;;21.31;75.34;99436.23;107336;1254;60421;-40
2023/08/22 02:18:13;;;;;;;9.50;8.20;;;;;;;21.27;75.42;99436.88;107345;1254;74316;-40
2023/08/22 02:20:41;;;;;;;8.10;7.30;;;;;;;21.27;75.33;99434.75;107346;1253;67612;-40
2023/08/22 02:23:09;;;;;;;9.30;7.00;;;;;;;21.26;75.17;99430.97;107375;1256;71354;-40
2023/08/22 02:25:36;;;;;;;8.30;7.50;;;;;;;21.24;75.24;99437.33;107350;1256;60408;-40
2023/08/22 02:28:05;;;;;;;9.30;8.40;;;;;;;21.21;75.35;99440.31;107368;1253;60011;-39
2023/08/22 02:30:33;;;;;;;8.30;7.40;;;;;;;21.17;75.21;99442.93;107517;1254;73864;-39
2023/08/22 02:33:03;;;;;;;8.00;7.10;;;;;;;21.13;75.33;99442.62;107640;1257;66408;-40
2023/08/22 02:35:31;;;;;;;7.80;7.00;;;;;;;21.10;75.25;99448.73;107659;1254;72657;-39
2023/08/22 02:37:59;;;;;;;9.80;7.10;;;;;;;21.10;75.33;99450.00;107330;1254;60752;-39
2023/08/22 02:40:26;;;;;;;9.30;7.70;;;;;;;21.10;75.22;99453.48;107528;1256;60294;-39
2023/08/22 02:42:54;;;;;;;8.80;7.40;;;;;;;21.04;75.30;99453.43;107516;1254;73938;-39
2023/08/22 02:45:22;;;;;;;10.70;8.20;;;;;;;20.95;75.24;99453.63;107535;1253;67551;-39
2023/08/22 02:47:49;;;;;;;9.20;7.40;;;;;;;20.90;75.72;99455.72;107493;1254;72701;-39
2023/08/22 02:50:17;;;;;;;9.40;7.00;;;;;;;20.90;75.43;99455.56;107327;1259;60800;-40
2023/08/22 02:52:45;;;;;;;8.80;6.70;;;;;;;20.90;75.23;99457.61;107492;1253;60838;-40
2023/08/22 02:55:13;;;;;;;8.20;6.90;;;;;;;20.86;75.29;99453.82;107364;1253;73857;-40
2023/08/22 02:57:40;;;;;;;7.40;6.70;;;;;;;20.82;75.32;99458.55;107364;1254;67490;-40
2023/08/22 03:00:11;;;;;;;9.60;7.20;;;;;;;20.76;75.20;99458.20;107377;1257;71393;-40
2023/08/22 03:02:39;;;;;;;7.30;6.60;;;;;;;20.70;75.31;99458.95;107354;1253;60562;-40
2023/08/22 03:05:11;;;;;;;7.80;7.00;;;;;;;20.70;75.27;99465.11;107398;1254;59231;-39
2023/08/22 03:07:39;;;;;;;7.70;6.90;;;;;;;20.71;75.07;99462.42;107334;1254;73906;-40
2023/08/22 03:10:10;;;;;;;7.90;7.10;;;;;;;20.68;75.05;99467.84;107294;1254;67631;-40
2023/08/22 03:12:37;;;;;;;8.20;6.40;;;;;;;20.61;75.07;99467.73;107443;1259;72648;-40
2023/08/22 03:15:07;;;;;;;8.10;7.30;;;;;;;20.54;75.10;99467.55;107416;1254;60399;-40
2023/08/22 03:17:38;;;;;;;8.90;6.50;;;;;;;20.52;75.11;99467.76;107442;1259;60297;-40
2023/08/22 03:20:08;;;;;;;7.00;6.40;;;;;;;20.53;74.96;99466.23;107582;1254;73920;-40
2023/08/22 03:22:35;;;;;;;7.70;6.90;;;;;;;20.50;74.85;99473.46;107655;1254;66487;-39
2023/08/22 03:25:04;;;;;;;7.30;6.50;;;;;;;20.47;74.92;99472.36;107463;1254;71397;-40
2023/08/22 03:27:33;;;;;;;10.30;6.80;;;;;;;20.42;74.98;99472.12;107366;1254;60190;-40
2023/08/22 03:30:00;;;;;;;7.00;6.30;;;;;;;20.38;74.99;99476.61;107556;1256;60338;-40
2023/08/22 03:32:30;;;;;;;8.10;5.90;;;;;;;20.36;74.85;99478.45;107501;1254;72580;-40
2023/08/22 03:34:58;;;;;;;6.90;6.20;;;;;;;20.35;74.93;99478.23;107298;1255;65307;-39
2023/08/22 03:37:26;;;;;;;7.40;6.30;;;;;;;20.34;75.12;99482.48;107531;1254;71408;-40
2023/08/22 03:39:54;;;;;;;10.30;6.30;;;;;;;20.32;75.09;99483.64;107579;1253;60161;-40
2023/08/22 03:42:22;;;;;;;6.70;6.00;;;;;;;20.29;74.89;99482.08;107358;1253;60315;-40
2023/08/22 03:44:51;;;;;;;9.80;6.40;;;;;;;20.26;75.00;99482.54;107331;1259;72560;-40
2023/08/22 03:47:19;;;;;;;6.70;5.80;;;;;;;20.27;74.95;99479.14;107582;1254;66648;-40
2023/08/22 03:49:47;;;;;;;7.30;6.20;;;;;;;20.29;74.83;99481.53;107447;1259;71461;-40
2023/08/22 03:52:15;;;;;;;6.80;6.20;;;;;;;20.31;74.99;99482.95;107619;1254;60409;-39
2023/08/22 03:54:42;;;;;;;6.60;5.90;;;;;;;20.30;74.98;99483.65;107622;1253;60495;-39
2023/08/22 03:57:10;;;;;;;6.90;6.20;;;;;;;20.28;74.97;99486.66;107605;1253;73859;-40
2023/08/22 03:59:38;;;;;;;6.80;6.10;;;;;;;20.25;75.34;99488.70;107326;1254;66638;-40
2023/08/22 04:02:05;;;;;;;7.40;5.80;;;;;;;20.26;75.30;99494.79;107556;1254;71400;-40
2023/08/22 04:04:33;;;;;;;7.10;6.20;;;;;;;20.31;75.21;99500.23;107507;1257;61640;-40
2023/08/22 04:07:01;;;;;;;8.80;6.30;;;;;;;20.37;75.23;99499.91;107591;1254;60301;-40
2023/08/22 04:09:28;;;;;;;7.60;6.30;;;;;;;20.39;75.18;99501.91;107335;1254;73879;-40
2023/08/22 04:11:56;;;;;;;9.40;7.00;;;;;;;20.38;75.26;99502.55;107369;1259;66778;-40
2023/08/22 04:14:24;;;;;;;7.00;6.40;;;;;;;20.40;75.32;99503.00;107266;1254;71457;-40
2023/08/22 04:16:51;;;;;;;7.70;6.20;;;;;;;20.45;75.15;99502.20;107574;1254;61682;-40
2023/08/22 04:19:19;;;;;;;10.20;6.60;;;;;;;20.50;75.16;99499.91;107444;1254;60034;-40
2023/08/22 04:21:47;;;;;;;8.30;6.60;;;;;;;20.54;75.18;99496.43;107477;1254;73814;-40
2023/08/22 04:24:14;;;;;;;9.40;7.00;;;;;;;20.55;75.08;99498.54;107588;1254;67850;-40
2023/08/22 04:26:43;;;;;;;10.10;7.70;;;;;;;20.55;75.30;99495.95;107362;1254;71779;-40
2023/08/22 04:29:11;;;;;;;7.80;7.00;;;;;;;20.57;75.29;99497.40;107495;1254;61686;-40
2023/08/22 04:31:38;;;;;;;11.70;6.80;;;;;;;20.62;75.37;99499.20;107345;1254;60071;-40
2023/08/22 04:34:07;;;;;;;8.70;7.30;;;;;;;20.70;74.95;99494.94;107394;1253;73935;-40
2023/08/22 04:36:41;;;;;;;8.10;6.80;;;;;;;20.77;74.58;99498.48;107527;1254;66310;-40
2023/08/22 04:39:10;;;;;;;9.40;7.40;;;;;;;20.79;74.44;99497.91;107330;1254;72675;-40
2023/08/22 04:41:38;;;;;;;10.70;7.40;;;;;;;20.79;74.54;99495.30;107354;1259;60415;-40
2023/08/22 04:44:25;;;;;;;9.60;7.40;;;;;;;20.81;74.47;99495.66;107612;1259;60299;-40
2023/08/22 04:46:53;;;;;;;10.50;7.50;;;;;;;20.88;74.41;99494.96;107497;1254;72616;-40
2023/08/22 04:49:21;;;;;;;8.10;7.30;;;;;;;20.94;74.29;99492.95;107583;1254;66257;-40
2023/08/22 04:51:48;;;;;;;8.30;7.60;;;;;;;20.96;74.07;99493.69;107376;1257;72252;-39
2023/08/22 04:54:16;;;;;;;9.90;8.50;;;;;;;20.96;74.23;99492.98;107569;1254;60519;-38
2023/08/22 04:56:43;;;;;;;9.50;8.00;;;;;;;20.97;74.28;99496.83;107328;1259;60326;-38
2023/08/22 04:59:11;;;;;;;9.90;7.80;;;;;;;21.03;74.40;99496.14;107480;1259;73865;-38
2023/08/22 05:01:39;;;;;;;9.80;8.20;;;;;;;21.11;74.19;99496.68;107480;1258;67031;-39
2023/08/22 05:04:07;;;;;;;9.60;7.90;;;;;;;21.15;73.99;99496.84;107612;1254;71413;-38
2023/08/22 05:06:35;;;;;;;9.30;8.30;;;;;;;21.17;74.20;99493.35;107502;1254;59589;-38
2023/08/22 05:09:04;;;;;;;10.40;8.40;;;;;;;21.18;74.16;99495.77;107494;1259;60271;-38
2023/08/22 05:11:35;;;;;;;11.80;9.20;;;;;;;21.21;74.15;99500.58;107572;1259;73045;-39
2023/08/22 05:14:04;;;;;;;9.20;7.90;;;;;;;21.28;74.01;99502.09;107473;1259;66300;-38
2023/08/22 05:16:32;;;;;;;8.70;7.90;;;;;;;21.36;73.74;99502.31;107496;1254;72123;-39
2023/08/22 05:19:00;;;;;;;9.70;8.70;;;;;;;21.41;73.72;99503.20;107523;1254;60418;-38
2023/08/22 05:21:27;;;;;;;10.20;9.20;;;;;;;21.45;73.60;99506.34;107525;1258;60020;-38
2023/08/22 05:23:55;;;;;;;12.00;8.70;;;;;;;21.49;73.16;99506.27;107639;1254;73840;-39
2023/08/22 05:26:23;;;;;;;9.20;8.30;;;;;;;21.53;72.30;99514.27;107573;1256;66291;-39
2023/08/22 05:28:51;;;;;;;11.10;8.40;;;;;;;21.57;72.05;99512.05;107357;1257;72533;-38
2023/08/22 05:31:20;;;;;;;9.60;8.60;;;;;;;21.61;71.94;99513.46;107502;1260;60408;-38
2023/08/22 05:33:48;;;;;;;9.60;8.60;;;;;;;21.65;71.87;99510.04;107581;1259;60388;-40
2023/08/22 05:36:16;;;;;;;9.80;8.60;;;;;;;21.68;72.14;99509.85;107510;1260;72589;-39
2023/08/22 05:38:43;;;;;;;9.40;8.50;;;;;;;21.68;71.55;99507.21;107608;1256;66269;-39
2023/08/22 05:41:13;;;;;;;13.00;8.30;;;;;;;21.71;71.21;99507.00;107407;1254;71385;-39
2023/08/22 05:43:41;;;;;;;11.50;8.50;;;;;;;21.74;71.42;99507.86;107309;1254;60365;-38
2023/08/22 05:46:09;;;;;;;9.30;8.20;;;;;;;21.78;70.43;99506.43;107315;1253;60397;-39
2023/08/22 05:48:38;;;;;;;9.50;7.80;;;;;;;21.81;69.88;99504.86;107521;1254;73104;-38
2023/08/22 05:51:06;;;;;;;8.70;7.80;;;;;;;21.85;69.92;99503.59;107450;1259;66750;-38
2023/08/22 05:53:33;;;;;;;10.70;7.00;;;;;;;21.89;69.41;99503.95;107468;1255;72670;-39
2023/08/22 05:56:01;;;;;;;8.40;6.40;;;;;;;21.98;68.39;99506.91;107488;1254;61709;-39
2023/08/22 05:58:29;;;;;;;8.50;6.70;;;;;;;22.06;66.83;99507.27;107478;1257;60400;-39
2023/08/22 06:00:58;;;;;;;12.60;6.10;;;;;;;22.06;66.25;99505.61;107484;1254;73627;-38
2023/08/22 06:03:28;;;;;;;7.50;6.40;;;;;;;22.04;65.60;99504.86;107506;1254;66289;-39
2023/08/22 06:05:56;;;;;;;8.00;6.50;;;;;;;22.01;64.54;99502.83;107468;1260;71405;-39
2023/08/22 06:08:24;;;;;;;7.10;6.00;;;;;;;21.98;64.05;99501.46;107552;1254;60491;-39
2023/08/22 06:10:51;;;;;;;7.60;6.00;;;;;;;21.95;63.55;99503.90;107504;1254;60421;-38
2023/08/22 06:13:19;;;;;;;7.50;6.00;;;;;;;21.95;62.07;99502.55;107319;1260;72695;-38
2023/08/22 06:15:48;;;;;;;6.40;5.20;;;;;;;21.97;61.91;99503.30;107586;1254;66424;-38
2023/08/22 06:18:20;;;;;;;9.10;5.60;;;;;;;22.01;61.61;99504.55;107503;1259;71453;-38
2023/08/22 06:20:49;;;;;;;5.90;5.10;;;;;;;22.03;61.50;99508.36;107508;1254;60277;-38
2023/08/22 06:23:16;;;;;;;8.30;5.20;;;;;;;22.03;60.65;99511.58;107340;1255;60395;-38
2023/08/22 06:25:47;;;;;;;5.80;4.90;;;;;;;22.02;59.77;99513.45;107500;1260;72092;-39
2023/08/22 06:28:16;;;;;;;11.40;4.60;;;;;;;22.03;60.51;99510.02;107539;1254;66309;-39
2023/08/22 06:30:44;;;;;;;6.10;4.60;;;;;;;22.08;59.20;99511.01;107495;1254;72698;-38
2023/08/22 06:33:11;;;;;;;7.60;4.30;;;;;;;22.13;58.33;99516.39;107364;1255;60303;-39
2023/08/22 06:35:39;;;;;;;6.00;4.60;;;;;;;22.18;57.64;99516.20;107358;1254;60419;-39
2023/08/22 06:38:07;;;;;;;4.60;3.90;;;;;;;22.23;57.14;99513.16;107503;1254;73886;-39
2023/08/22 06:40:35;;;;;;;8.40;4.20;;;;;;;22.26;55.27;99515.60;107508;1254;66720;-39
2023/08/22 06:43:04;;;;;;;;;;;;;;;22.28;54.05;99512.70;107518;1254;72817;-39
2023/08/22 06:45:33;;;;;;;5.20;3.20;;;;;;;22.30;53.45;99515.41;107381;1257;60473;-39
2023/08/22 06:48:01;;;;;;;5.70;3.80;;;;;;;22.33;53.22;99513.83;107504;1254;60011;-39
2023/08/22 06:50:29;;;;;;;10.10;3.60;;;;;;;22.39;54.54;99511.13;107512;1259;72537;-39
2023/08/22 06:52:57;;;;;;;7.00;3.90;;;;;;;22.48;54.04;99511.23;107472;1259;68001;-38
2023/08/22 06:55:25;;;;;;;4.10;2.90;;;;;;;22.56;52.74;99502.85;107379;1259;72011;-39
2023/08/22 06:57:53;;;;;;;5.90;3.10;;;;;;;22.63;50.62;99501.48;107524;1255;60385;-39
2023/08/22 07:00:21;;;;;;;7.30;2.80;;;;;;;22.71;50.82;99501.04;107464;1254;60508;-39
2023/08/22 07:02:49;;;;;;;4.20;2.80;;;;;;;22.80;50.45;99512.87;107491;1260;73939;-39
2023/08/22 07:05:18;;;;;;;4.70;3.00;;;;;;;22.89;50.44;99507.70;107530;1259;67646;-38
2023/08/22 07:07:46;;;;;;;5.00;2.90;;;;;;;22.94;50.23;99510.33;107566;1254;71458;-39
2023/08/22 07:10:14;;;;;;;5.80;3.30;;;;;;;23.01;50.42;99508.95;107460;1254;60628;-39
2023/08/22 07:12:45;;;;;;;7.00;3.00;;;;;;;23.09;50.38;99513.23;107512;1254;60435;-39
2023/08/22 07:15:13;;;;;;;8.30;3.30;;;;;;;23.17;50.51;99511.64;107504;1254;71887;-38
2023/08/22 07:17:41;;;;;;;5.50;3.40;;;;;;;23.25;50.48;99517.09;107503;1260;66603;-39
2023/08/22 07:20:13;;;;;;;6.00;2.90;;;;;;;23.34;49.53;99515.88;107495;1254;72714;-39
2023/08/22 07:22:41;;;;;;;4.20;3.00;;;;;;;23.38;48.94;99512.27;107472;1254;60215;-39
2023/08/22 07:25:09;;;;;;;8.00;3.10;;;;;;;23.39;48.33;99515.48;107551;1253;60061;-39
2023/08/22 07:27:37;;;;;;;5.70;2.90;;;;;;;23.36;48.41;99515.63;107496;1254;72956;-39
2023/08/22 07:30:06;;;;;;;3.80;2.70;;;;;;;23.36;48.26;99517.23;107554;1260;67565;-39
2023/08/22 07:32:33;;;;;;;6.00;2.80;;;;;;;23.37;48.55;99513.02;107562;1254;71902;-39
2023/08/22 07:35:01;;;;;;;15.60;3.50;;;;;;;23.42;48.72;99516.56;107520;1254;60075;-39
2023/08/22 07:37:28;;;;;;;104.80;11.60;;;;;;;23.47;48.23;99512.17;107536;1254;59766;-39
2023/08/22 07:39:56;;;;;;;6.70;3.00;;;;;;;23.47;48.05;99512.88;107515;1254;73849;-38
2023/08/22 07:42:24;;;;;;;7.40;2.80;;;;;;;23.46;47.53;99514.73;107346;1254;67519;-39
2023/08/22 12:57:42;;;;;;;3.10;1.50;;;;;;;28.85;33.42;99468.56;104953;1282;613187;-42
2023/08/22 13:00:11;;;;;;;4.80;1.60;;;;;;;28.68;33.59;99471.88;106448;1270;218259;-42
2023/08/22 13:02:40;;;;;;;6.40;1.80;;;;;;;28.49;34.14;99469.23;106652;1266;60055;-42
2023/08/22 13:05:08;;;;;;;4.60;1.50;;;;;;;28.33;34.67;99471.88;106808;1266;72261;-41
2023/08/22 13:07:36;;;;;;;5.60;1.70;;;;;;;28.16;34.65;99471.89;106685;1264;66874;-42
2023/08/22 13:10:04;;;;;;;3.20;1.20;;;;;;;27.90;35.00;99472.23;106622;1266;73134;-42
2023/08/22 13:12:34;;;;;;;5.40;1.80;;;;;;;27.73;35.05;99468.54;106823;1267;60629;-42
2023/08/22 13:15:03;;;;;;;3.10;1.70;;;;;;;27.70;35.57;99463.76;106746;1266;60041;-42
2023/08/22 13:17:31;;;;;;;3.70;2.20;;;;;;;27.75;35.36;99467.20;106686;1266;72311;-42
2023/08/22 13:19:59;;;;;;;4.70;1.90;;;;;;;27.94;35.12;99465.13;106714;1266;67621;-41
2023/08/22 13:22:26;;;;;;;3.90;1.60;;;;;;;28.27;35.01;99465.88;106776;1266;71381;-42
2023/08/22 13:24:54;;;;;;;3.00;1.60;;;;;;;28.81;34.07;99462.10;106753;1267;60684;-42
2023/08/22 13:27:22;;;;;;;7.10;1.50;;;;;;;29.37;33.33;99461.42;106682;1264;59900;-41
2023/08/22 13:29:49;;;;;;;3.00;1.50;;;;;;;29.84;32.50;99458.49;106755;1264;73019;-41
2023/08/22 13:32:17;;;;;;;3.00;1.60;;;;;;;30.25;31.76;99455.61;106795;1264;66317;-42
2023/08/22 13:34:44;;;;;;;4.80;1.70;;;;;;;30.51;30.07;99453.58;106666;1264;72937;-42
2023/08/22 13:37:12;;;;;;;4.20;1.60;;;;;;;30.55;29.33;99450.46;106709;1266;59483;-41
2023/08/22 13:39:40;;;;;;;3.50;1.70;;;;;;;30.41;28.71;99447.70;106941;1266;60046;-41
2023/08/22 13:42:08;;;;;;;2.60;1.50;;;;;;;30.16;29.12;99443.45;106968;1262;73041;-41
2023/08/22 13:44:43;;;;;;;2.40;1.30;;;;;;;29.89;29.83;99452.82;106906;1263;66528;-41
2023/08/22 13:47:11;;;;;;;5.20;1.70;;;;;;;29.64;30.64;99458.33;106837;1266;71477;-41
2023/08/22 13:49:39;;;;;;;6.90;1.80;;;;;;;29.42;31.73;99462.83;106850;1261;60132;-41
2023/08/22 13:52:06;;;;;;;3.50;1.50;;;;;;;29.35;32.59;99455.67;106884;1262;59601;-41
2023/08/22 13:54:34;;;;;;;2.90;1.30;;;;;;;29.47;32.89;99447.02;106899;1266;71989;-41
2023/08/22 13:57:02;;;;;;;3.60;1.60;;;;;;;29.66;32.07;99442.16;106980;1263;67580;-42
2023/08/22 13:59:29;;;;;;;4.50;1.70;;;;;;;29.78;31.58;99442.91;106926;1266;72704;-41
2023/08/22 14:01:57;;;;;;;4.10;1.50;;;;;;;29.83;31.23;99445.83;106922;1264;59955;-42
2023/08/22 14:04:25;;;;;;;3.20;1.60;;;;;;;29.88;30.74;99446.50;106926;1261;59583;-43
2023/08/22 14:06:53;;;;;;;3.00;1.70;;;;;;;29.95;30.36;99436.95;106984;1261;75343;-42
2023/08/22 14:09:21;;;;;;;3.60;1.60;;;;;;;30.07;30.31;99442.54;106880;1263;67930;-42
2023/08/22 14:11:54;;;;;;;4.50;1.90;;;;;;;30.30;30.14;99444.32;106873;1265;72830;-42
2023/08/22 14:14:22;;;;;;;3.00;1.80;;;;;;;30.64;30.40;99446.23;106884;1265;60097;-42
2023/08/22 14:16:49;;;;;;;5.10;1.70;;;;;;;30.94;30.03;99446.55;106863;1261;60291;-42
2023/08/22 14:19:17;;;;;;;6.90;2.00;;;;;;;31.19;28.16;99444.63;106877;1261;73497;-42
2023/08/22 14:21:45;;;;;;;3.50;1.70;;;;;;;31.36;27.66;99438.38;106883;1263;66613;-42
2023/08/22 14:24:18;;;;;;;2.90;1.90;;;;;;;31.59;27.22;99442.04;106996;1264;72756;-42
2023/08/22 14:26:45;;;;;;;3.10;1.30;;;;;;;31.76;26.20;99444.33;106996;1261;59563;-42
2023/08/22 14:29:13;;;;;;;3.60;1.60;;;;;;;31.79;26.21;99440.67;106927;1261;59970;-42
2023/08/22 14:31:41;;;;;;;1.70;1.30;;;;;;;31.86;26.24;99439.65;106962;1263;73075;-42
2023/08/22 14:34:10;;;;;;;2.90;1.40;;;;;;;32.02;26.57;99436.34;107008;1266;68006;-42
2023/08/22 14:36:38;;;;;;;3.20;1.50;;;;;;;32.27;26.15;99438.07;106856;1261;71452;-42
2023/08/22 14:39:07;;;;;;;5.50;1.70;;;;;;;32.43;26.08;99438.52;107026;1263;59760;-42
2023/08/22 14:41:35;;;;;;;3.00;1.40;;;;;;;32.56;26.21;99439.52;106990;1263;60037;-42
2023/08/22 14:44:03;;;;;;;5.70;1.40;;;;;;;32.75;26.37;99440.73;106976;1262;73052;-42
2023/08/22 14:46:30;;;;;;;4.40;1.50;;;;;;;32.96;26.62;99443.61;106846;1266;67547;-42
2023/08/22 14:48:58;;;;;;;2.80;1.40;;;;;;;33.35;25.91;99441.45;106991;1260;73072;-42
2023/08/22 14:51:26;;;;;;;2.20;1.30;;;;;;;33.74;25.82;99437.02;106985;1264;59753;-42
2023/08/22 14:53:54;;;;;;;5.40;1.60;;;;;;;34.12;25.46;99434.58;106868;1261;59570;-42
2023/08/22 14:56:21;;;;;;;3.40;1.50;;;;;;;34.42;25.13;99434.83;106855;1267;72172;-42
2023/08/22 14:58:49;;;;;;;3.50;1.40;;;;;;;34.65;25.01;99424.50;106860;1263;67610;-41
2023/08/22 15:01:17;;;;;;;2.10;1.50;;;;;;;34.89;24.74;99423.60;106894;1266;72692;-40
2023/08/22 15:03:45;;;;;;;3.90;1.70;;;;;;;35.04;24.13;99429.98;106708;1264;59646;-41
2023/08/22 15:06:13;;;;;;;3.50;1.60;;;;;;;34.62;23.93;99426.25;107377;1258;60058;-42
2023/08/22 15:08:40;;;;;;;4.20;1.40;;;;;;;34.05;24.78;99432.18;107306;1254;71782;-41
2023/08/22 15:11:08;;;;;;;3.10;1.50;;;;;;;33.83;25.09;99438.84;107376;1255;67636;-41
2023/08/22 15:13:36;;;;;;;4.30;1.80;;;;;;;33.86;25.44;99436.67;107497;1254;72636;-42
2023/08/22 15:16:04;;;;;;;2.80;1.50;;;;;;;33.99;25.18;99434.83;107476;1259;59493;-42
2023/08/22 15:18:31;;;;;;;3.40;1.50;;;;;;;34.17;24.93;99432.64;107439;1259;60106;-41
2023/08/22 15:20:59;;;;;;;2.50;1.50;;;;;;;34.42;24.68;99425.97;107446;1255;73039;-42
2023/08/22 15:23:27;;;;;;;5.70;1.90;;;;;;;34.83;24.62;99421.65;107363;1259;67565;-41
2023/08/22 15:25:55;;;;;;;6.20;1.80;;;;;;;35.32;23.82;99426.64;107438;1255;71516;-42
2023/08/22 15:28:24;;;;;;;4.30;1.40;;;;;;;35.53;23.36;99422.64;107518;1254;60061;-42
2023/08/22 15:30:56;;;;;;;3.80;1.60;;;;;;;35.62;23.31;99423.66;107474;1254;60038;-41
2023/08/22 15:33:25;;;;;;;3.40;1.50;;;;;;;35.58;23.17;99425.52;107517;1256;71862;-41
2023/08/22 15:35:57;;;;;;;2.60;1.50;;;;;;;35.46;23.40;99423.17;107354;1254;67593;-41
2023/08/22 15:38:36;;;;;;;4.00;2.10;;;;;;;35.39;23.47;99428.54;107483;1255;71430;-42
2023/08/22 15:41:05;;;;;;;3.10;1.50;;;;;;;35.23;23.60;99425.00;107575;1256;59457;-41
2023/08/22 15:43:33;;;;;;;3.60;1.70;;;;;;;35.18;23.73;99423.01;107454;1255;60076;-41
2023/08/22 15:46:01;;;;;;;3.20;1.60;;;;;;;35.11;23.62;99420.64;107469;1254;72764;-41
2023/08/22 15:48:28;;;;;;;3.70;1.70;;;;;;;35.00;23.80;99421.66;107619;1254;67896;-42
2023/08/22 15:50:59;;;;;;;3.00;1.70;;;;;;;34.97;23.95;99424.31;107519;1260;72731;-42
2023/08/22 15:53:27;;;;;;;7.70;1.50;;;;;;;34.70;23.97;99421.13;107521;1260;60073;-41
2023/08/22 15:55:54;;;;;;;4.20;1.80;;;;;;;34.19;24.51;99423.59;107470;1254;60025;-42
2023/08/22 15:58:23;;;;;;;2.70;1.80;;;;;;;33.59;24.97;99431.29;107347;1259;72507;-42
2023/08/22 16:00:50;;;;;;;2.10;1.60;;;;;;;32.94;25.43;99432.31;107195;1259;67948;-40
2023/08/22 16:03:18;;;;;;;4.30;1.70;;;;;;;32.27;26.32;99426.85;107383;1259;71567;-40
2023/08/22 16:05:46;;;;;;;6.20;1.60;;;;;;;31.67;27.10;99429.09;107391;1254;60044;-40
2023/08/22 16:08:14;;;;;;;3.10;1.70;;;;;;;31.10;27.82;99433.55;107270;1254;59537;-40
2023/08/22 16:10:41;;;;;;;5.70;1.80;;;;;;;30.58;28.67;99434.66;107294;1253;73105;-40
2023/08/22 16:13:09;;;;;;;4.20;1.70;;;;;;;30.07;29.16;99437.59;107374;1254;67623;-40
2023/08/22 16:15:37;;;;;;;4.30;1.70;;;;;;;29.53;30.00;99443.95;107432;1258;71405;-40
2023/08/22 16:18:05;;;;;;;2.00;1.50;;;;;;;29.09;30.73;99444.63;107323;1254;60079;-40
2023/08/22 16:20:34;;;;;;;6.80;2.00;;;;;;;28.74;31.49;99445.77;107503;1254;59997;-40
2023/08/22 16:23:05;;;;;;;3.50;1.80;;;;;;;28.44;32.12;99448.61;107376;1260;73038;-42
2023/08/22 16:25:40;;;;;;;3.90;1.70;;;;;;;28.18;32.82;99447.19;107186;1255;69540;-42
2023/08/22 16:28:08;;;;;;;4.40;2.00;;;;;;;27.94;33.51;99444.77;107377;1255;72057;-41
2023/08/22 16:30:36;;;;;;;4.30;2.00;;;;;;;27.76;33.75;99443.78;107300;1257;60075;-42
2023/08/22 16:33:04;;;;;;;3.50;1.80;;;;;;;27.61;34.15;99437.93;107300;1259;60279;-41
2023/08/22 16:35:31;;;;;;;4.70;1.70;;;;;;;27.48;34.64;99443.24;107413;1258;72252;-42
2023/08/22 16:38:04;;;;;;;3.70;1.70;;;;;;;27.34;34.82;99445.39;107320;1260;67840;-42
2023/08/22 16:40:40;;;;;;;5.10;1.70;;;;;;;27.11;35.42;99445.89;107359;1254;73042;-40
2023/08/22 16:43:08;;;;;;;6.80;2.00;;;;;;;26.90;35.38;99441.61;107185;1254;60107;-40